Time;durP1;ratioP1;P1;durP2;ratioP2;P2;SDS_P1;SDS_P2;PMS_P1;PMS_P2;Temp;Humidity;BMP_temperature;BMP_pressure;BME280_temperature;BME280_humidity;BME280_pressure;Samples;Min_cycle;Max_cycle;Signal;HPM_P1;HPM_P2
2023/06/17 00:00:12;;;;;;;1.60;1.40;;;32.20;33.30;;;;;;5086222;27;87467;-52
2023/06/17 00:02:40;;;;;;;2.00;1.47;;;32.10;33.30;;;;;;5084803;27;87462;-52
2023/06/17 00:05:10;;;;;;;1.67;1.20;;;32.10;33.30;;;;;;5084697;27;88593;-51
2023/06/17 00:07:41;;;;;;;1.43;1.30;;;32.10;33.30;;;;;;5083038;27;89101;-52
2023/06/17 00:10:10;;;;;;;3.10;1.20;;;32.10;33.30;;;;;;5084905;27;87331;-52
2023/06/17 00:12:38;;;;;;;3.23;2.20;;;32.10;33.30;;;;;;5085020;27;87366;-52
2023/06/17 00:15:07;;;;;;;4.40;2.80;;;32.10;33.30;;;;;;5084434;27;89659;-52
2023/06/17 00:17:35;;;;;;;5.20;3.70;;;32.10;33.30;;;;;;5084166;27;88116;-52
2023/06/17 00:20:10;;;;;;;5.83;3.37;;;32.10;33.30;;;;;;5084931;27;87411;-51
2023/06/17 00:22:40;;;;;;;5.60;3.80;;;32.10;33.30;;;;;;5077854;27;87521;-52
2023/06/17 00:25:10;;;;;;;6.17;3.83;;;32.00;33.30;;;;;;5063945;27;89710;-52
2023/06/17 00:27:38;;;;;;;8.70;3.93;;;32.00;33.30;;;;;;5063309;27;89139;-52
2023/06/17 00:30:07;;;;;;;6.50;3.93;;;32.00;33.30;;;;;;5064042;27;87290;-52
2023/06/17 00:32:35;;;;;;;7.33;4.23;;;32.00;33.30;;;;;;5076030;27;87429;-52
2023/06/17 00:35:04;;;;;;;6.43;4.10;;;32.00;33.30;;;;;;5085066;27;88447;-52
2023/06/17 00:37:33;;;;;;;6.57;3.97;;;32.00;33.30;;;;;;5084052;27;88044;-52
2023/06/17 00:40:05;;;;;;;5.43;3.80;;;32.00;33.30;;;;;;5084106;27;87339;-52
2023/06/17 00:42:33;;;;;;;5.10;3.97;;;31.90;34.00;;;;;;5084383;27;87529;-51
2023/06/17 00:45:02;;;;;;;5.60;3.97;;;31.90;33.30;;;;;;5084586;27;89666;-52
2023/06/17 00:47:30;;;;;;;5.57;3.70;;;31.90;33.40;;;;;;5084531;27;89080;-52
2023/06/17 00:49:58;;;;;;;5.93;4.20;;;31.90;33.40;;;;;;5084069;27;87438;-52
2023/06/17 00:52:26;;;;;;;9.87;4.47;;;31.90;33.40;;;;;;5084392;27;87640;-52
2023/06/17 00:55:10;;;;;;;7.07;4.30;;;31.90;33.40;;;;;;5084070;27;88584;-51
2023/06/17 00:57:38;;;;;;;5.87;3.80;;;31.90;33.40;;;;;;5083903;27;88004;-52
2023/06/17 01:00:10;;;;;;;6.37;3.97;;;31.90;33.50;;;;;;5084127;27;87442;-52
2023/06/17 01:02:40;;;;;;;7.20;3.90;;;31.80;33.40;;;;;;5084504;27;87525;-52
2023/06/17 01:05:11;;;;;;;5.03;3.83;;;31.80;33.50;;;;;;5082535;27;88594;-52
2023/06/17 01:07:45;;;;;;;5.47;3.67;;;31.80;33.50;;;;;;5083630;27;89073;-52
2023/06/17 01:10:19;;;;;;;4.63;3.23;;;31.80;33.50;;;;;;5083923;27;87370;-52
2023/06/17 01:12:48;;;;;;;5.13;3.53;;;31.80;33.50;;;;;;5084012;27;87510;-52
2023/06/17 01:15:17;;;;;;;5.10;4.03;;;31.80;33.60;;;;;;5083737;27;89706;-52
2023/06/17 01:17:45;;;;;;;5.70;3.07;;;31.80;33.60;;;;;;5083577;27;87691;-52
2023/06/17 01:20:15;;;;;;;4.13;2.97;;;31.70;33.50;;;;;;5083988;27;87304;-52
2023/06/17 01:22:43;;;;;;;3.50;2.93;;;31.80;33.70;;;;;;5084087;27;87318;-52
2023/06/17 01:25:13;;;;;;;4.97;3.07;;;31.70;33.60;;;;;;5083932;27;89799;-51
2023/06/17 01:27:41;;;;;;;5.17;3.20;;;31.80;33.70;;;;;;5083368;27;87998;-52
2023/06/17 01:30:10;;;;;;;6.80;3.33;;;31.70;33.70;;;;;;5083999;27;87343;-52
2023/06/17 01:32:38;;;;;;;4.87;3.20;;;31.70;33.70;;;;;;5083947;27;87681;-51
2023/06/17 01:35:08;;;;;;;5.50;3.33;;;31.70;34.40;;;;;;5079157;27;88511;-51
2023/06/17 01:37:38;;;;;;;6.57;2.90;;;31.70;33.80;;;;;;5063211;27;89236;-52
2023/06/17 01:40:07;;;;;;;3.20;2.53;;;31.70;33.80;;;;;;5062480;27;87466;-52
2023/06/17 01:42:37;;;;;;;3.37;2.50;;;31.70;33.80;;;;;;5063326;27;87692;-52
2023/06/17 01:45:06;;;;;;;3.67;2.27;;;31.60;33.80;;;;;;5062803;27;89705;-52
2023/06/17 01:47:34;;;;;;;5.07;2.47;;;31.60;33.70;;;;;;5063418;27;89184;-52
2023/06/17 01:50:06;;;;;;;6.20;2.70;;;31.60;33.70;;;;;;5063415;27;87357;-52
2023/06/17 01:52:34;;;;;;;4.10;2.83;;;31.60;33.70;;;;;;5062878;27;87583;-52
2023/06/17 01:55:02;;;;;;;2.60;2.30;;;31.60;33.70;;;;;;5062701;27;89710;-52
2023/06/17 01:57:31;;;;;;;3.73;2.63;;;31.60;34.40;;;;;;5062847;27;88917;-52
2023/06/17 02:00:00;;;;;;;3.60;2.30;;;31.60;33.80;;;;;;5063003;27;87512;-52
2023/06/17 02:02:28;;;;;;;3.00;2.10;;;31.60;33.80;;;;;;5062977;27;87599;-52
2023/06/17 02:04:57;;;;;;;3.63;2.70;;;31.60;33.80;;;;;;5062843;27;89569;-52
2023/06/17 02:07:25;;;;;;;4.47;2.63;;;31.60;33.80;;;;;;5062467;27;87995;-52
2023/06/17 02:09:53;;;;;;;4.77;2.30;;;31.60;33.80;;;;;;5062676;27;87417;-52
2023/06/17 02:12:21;;;;;;;4.80;2.60;;;31.50;33.80;;;;;;5080436;27;87827;-52
2023/06/17 02:14:50;;;;;;;5.00;2.50;;;31.50;33.80;;;;;;5083559;27;88530;-52
2023/06/17 02:17:19;;;;;;;3.73;2.00;;;31.50;33.80;;;;;;5083000;27;89188;-52
2023/06/17 02:19:47;;;;;;;2.70;2.10;;;31.50;33.90;;;;;;5082915;27;87524;-51
2023/06/17 02:22:15;;;;;;;4.50;2.07;;;31.50;33.80;;;;;;5082546;27;87668;-52
2023/06/17 02:24:43;;;;;;;2.60;2.20;;;31.50;33.90;;;;;;5082845;27;87529;-52
2023/06/17 02:27:12;;;;;;;2.60;2.10;;;31.50;33.90;;;;;;5083140;27;89107;-52
2023/06/17 02:29:40;;;;;;;2.93;2.00;;;31.50;33.90;;;;;;5083294;27;87403;-51
2023/06/17 02:32:08;;;;;;;3.87;2.17;;;31.40;33.80;;;;;;5082640;27;87573;-52
2023/06/17 02:34:42;;;;;;;2.90;2.43;;;31.40;33.80;;;;;;5082265;27;89555;-52
2023/06/17 02:37:10;;;;;;;5.07;3.20;;;31.40;33.80;;;;;;5082903;27;88999;-51
2023/06/17 02:39:38;;;;;;;5.73;3.53;;;31.40;33.90;;;;;;5082425;27;87307;-52
2023/06/17 02:42:08;;;;;;;4.67;3.80;;;31.40;33.80;;;;;;5077383;27;87510;-52
2023/06/17 02:44:36;;;;;;;7.53;3.73;;;31.40;33.80;;;;;;5062145;27;89993;-51
2023/06/17 02:47:05;;;;;;;5.03;3.27;;;31.40;33.90;;;;;;5061863;27;89229;-52
2023/06/17 02:49:33;;;;;;;8.37;4.33;;;31.40;33.90;;;;;;5062334;27;87395;-51
2023/06/17 02:52:03;;;;;;;6.70;4.17;;;31.40;33.90;;;;;;5062002;27;87641;-51
2023/06/17 02:54:31;;;;;;;6.97;4.93;;;31.40;33.90;;;;;;5062147;27;89504;-52
2023/06/17 02:56:59;;;;;;;5.97;4.17;;;31.40;33.90;;;;;;5062126;27;89202;-52
2023/06/17 02:59:27;;;;;;;7.33;4.67;;;31.30;33.80;;;;;;5061842;27;87330;-51
2023/06/17 03:01:55;;;;;;;5.27;4.13;;;31.40;33.90;;;;;;5061989;27;87639;-52
2023/06/17 03:04:24;;;;;;;6.53;4.10;;;31.40;34.60;;;;;;5061565;27;89861;-52
2023/06/17 03:06:52;;;;;;;6.77;4.73;;;31.30;33.80;;;;;;5061828;27;87279;-52
2023/06/17 03:09:22;;;;;;;6.70;4.37;;;31.30;33.90;;;;;;5061359;27;87399;-51
2023/06/17 03:11:50;;;;;;;5.57;4.00;;;31.30;33.90;;;;;;5061613;27;87564;-51
2023/06/17 03:14:19;;;;;;;5.47;3.90;;;31.30;33.90;;;;;;5062002;27;89730;-51
2023/06/17 03:16:47;;;;;;;6.93;4.17;;;31.30;33.90;;;;;;5061169;27;89045;-51
2023/06/17 03:19:15;;;;;;;4.93;3.67;;;31.30;33.90;;;;;;5061572;27;87299;-51
2023/06/17 03:21:45;;;;;;;6.20;4.67;;;31.30;34.60;;;;;;5060881;27;87718;-51
2023/06/17 03:24:13;;;;;;;5.73;4.00;;;31.20;33.90;;;;;;5061444;27;89734;-52
2023/06/17 03:26:42;;;;;;;7.07;4.13;;;31.20;33.90;;;;;;5061700;27;88995;-51
2023/06/17 03:29:10;;;;;;;5.23;3.53;;;31.20;33.90;;;;;;5061184;27;87805;-51
2023/06/17 03:31:38;;;;;;;6.30;4.57;;;31.20;33.90;;;;;;5061206;27;87524;-52
2023/06/17 03:34:06;;;;;;;5.27;3.90;;;31.20;33.90;;;;;;5064264;27;88548;-52
2023/06/17 03:36:34;;;;;;;6.00;4.10;;;31.20;33.90;;;;;;5064749;27;88834;-52
2023/06/17 03:39:03;;;;;;;7.03;4.13;;;31.20;33.90;;;;;;5064434;27;87458;-51
2023/06/17 03:41:31;;;;;;;6.37;4.33;;;31.20;34.00;;;;;;5064739;27;87580;-51
2023/06/17 03:44:01;;;;;;;5.33;3.70;;;31.10;33.90;;;;;;5064694;27;89705;-52
2023/06/17 03:46:29;;;;;;;6.77;3.73;;;31.20;33.90;;;;;;5065286;27;88149;-51
2023/06/17 03:48:57;;;;;;;5.40;3.73;;;31.10;33.90;;;;;;5064480;27;87466;-52
2023/06/17 03:51:25;;;;;;;4.43;3.13;;;31.10;33.90;;;;;;5065171;27;87441;-51
2023/06/17 03:53:53;;;;;;;4.40;3.63;;;31.20;34.00;;;;;;5064384;27;88412;-51
2023/06/17 03:56:21;;;;;;;4.77;3.60;;;31.10;33.90;;;;;;5064905;27;89340;-52
2023/06/17 03:58:49;;;;;;;5.67;3.70;;;31.10;33.90;;;;;;5064857;27;87314;-51
2023/06/17 04:01:19;;;;;;;5.57;3.50;;;31.10;33.90;;;;;;5064563;27;87696;-52
2023/06/17 04:03:47;;;;;;;4.83;3.10;;;31.10;33.90;;;;;;5063886;27;89800;-51
2023/06/17 04:06:15;;;;;;;3.87;3.00;;;31.10;33.90;;;;;;5064773;27;89078;-52
2023/06/17 04:08:46;;;;;;;4.00;2.97;;;31.10;33.80;;;;;;5064971;27;87274;-52
2023/06/17 04:11:15;;;;;;;3.43;2.53;;;31.10;33.80;;;;;;5065322;27;87526;-52
2023/06/17 04:13:43;;;;;;;7.13;3.17;;;31.10;33.80;;;;;;5064514;27;88572;-51
2023/06/17 04:16:15;;;;;;;3.80;2.93;;;31.10;33.80;;;;;;5064501;27;89347;-51
2023/06/17 04:18:45;;;;;;;3.87;2.87;;;31.10;33.80;;;;;;5064583;27;87433;-51
2023/06/17 04:21:13;;;;;;;2.93;2.63;;;31.10;33.70;;;;;;5064589;27;87502;-51
2023/06/17 04:23:41;;;;;;;3.53;2.87;;;31.00;33.60;;;;;;5063301;27;89811;-51
2023/06/17 04:26:12;;;;;;;3.70;2.93;;;31.20;33.70;;;;;;5063772;27;89183;-51
2023/06/17 04:28:40;;;;;;;3.37;2.77;;;31.50;33.40;;;;;;5063296;27;87287;-52
2023/06/17 04:31:10;;;;;;;2.80;2.37;;;32.00;33.00;;;;;;5064594;27;87496;-51
2023/06/17 04:33:40;;;;;;;3.03;2.37;;;32.50;32.70;;;;;;5064302;27;89642;-52
2023/06/17 04:36:11;;;;;;;2.63;2.20;;;32.90;32.40;;;;;;5063796;27;89189;-52
2023/06/17 04:38:39;;;;;;;2.70;2.17;;;33.30;32.00;;;;;;5063346;27;87413;-52
2023/06/17 04:41:07;;;;;;;5.60;2.30;;;33.60;31.60;;;;;;5064265;27;87631;-52
2023/06/17 04:43:36;;;;;;;2.38;2.17;;;34.00;31.40;;;;;;5063825;27;88868;-52
2023/06/17 04:46:05;;;;;;;3.65;1.92;;;34.30;31.10;;;;;;5063343;27;87536;-51
2023/06/17 04:48:33;;;;;;;1.92;1.70;;;34.50;30.80;;;;;;5064270;27;87374;-52
2023/06/17 04:51:02;;;;;;;2.70;2.10;;;34.70;30.50;;;;;;5063345;27;87517;-51
2023/06/17 04:53:31;;;;;;;2.65;1.73;;;34.80;30.30;;;;;;5063919;27;90644;-51
2023/06/17 04:56:00;;;;;;;2.10;1.77;;;34.90;30.20;;;;;;5062959;27;89246;-52
2023/06/17 04:58:28;;;;;;;1.92;1.77;;;34.80;30.10;;;;;;5063173;27;87203;-51
2023/06/17 05:00:56;;;;;;;2.03;1.63;;;34.60;30.30;;;;;;5063904;27;87510;-51
2023/06/17 05:03:24;;;;;;;2.23;1.63;;;34.30;30.60;;;;;;5063467;27;89634;-51
2023/06/17 05:05:53;;;;;;;1.40;1.30;;;33.90;30.70;;;;;;5063556;27;88539;-51
2023/06/17 05:08:21;;;;;;;2.40;1.50;;;33.60;30.90;;;;;;5063362;27;87569;-52
2023/06/17 05:10:51;;;;;;;2.37;1.63;;;33.40;31.10;;;;;;5063699;27;87651;-51
2023/06/17 05:13:19;;;;;;;1.83;1.57;;;33.10;31.20;;;;;;5063242;27;89688;-51
2023/06/17 05:15:47;;;;;;;1.40;1.30;;;32.90;31.40;;;;;;5063239;27;89179;-51
2023/06/17 05:18:15;;;;;;;1.77;1.33;;;32.70;31.40;;;;;;5063814;27;87247;-51
2023/06/17 05:20:43;;;;;;;3.00;1.67;;;32.60;31.60;;;;;;5063661;27;88732;-51
2023/06/17 05:23:11;;;;;;;3.33;2.50;;;32.50;31.70;;;;;;5063461;27;89813;-51
2023/06/17 05:25:39;;;;;;;4.03;2.27;;;32.40;31.70;;;;;;5062915;27;89377;-51
2023/06/17 05:28:10;;;;;;;3.50;2.90;;;32.30;31.80;;;;;;5063652;27;87314;-51
2023/06/17 05:30:39;;;;;;;4.10;2.90;;;32.30;31.90;;;;;;5063792;27;87540;-51
2023/06/17 05:33:07;;;;;;;4.90;3.33;;;32.20;31.90;;;;;;5074713;27;89628;-52
2023/06/17 05:35:35;;;;;;;4.63;3.17;;;32.20;32.00;;;;;;5080188;27;89440;-52
2023/06/17 05:38:03;;;;;;;4.17;3.00;;;32.10;31.90;;;;;;5080720;27;87411;-51
2023/06/17 05:40:31;;;;;;;4.77;3.17;;;32.10;32.00;;;;;;5080717;27;87619;-52
2023/06/17 05:42:59;;;;;;;6.40;3.50;;;32.10;32.00;;;;;;5080860;27;89641;-51
2023/06/17 05:45:29;;;;;;;5.73;3.83;;;32.10;32.10;;;;;;5080341;27;87957;-52
2023/06/17 05:47:57;;;;;;;7.60;4.27;;;32.10;32.10;;;;;;5080569;27;87579;-51
2023/06/17 05:50:25;;;;;;;4.67;3.50;;;32.10;32.10;;;;;;5080498;27;87824;-51
2023/06/17 05:52:53;;;;;;;6.27;3.60;;;32.10;32.20;;;;;;5079731;27;89907;-52
2023/06/17 05:55:21;;;;;;;6.90;3.60;;;32.10;32.10;;;;;;5078546;27;88120;-51
2023/06/17 05:57:51;;;;;;;5.00;4.00;;;32.10;32.20;;;;;;5080682;27;87527;-51
2023/06/17 06:00:19;;;;;;;6.00;3.23;;;32.10;32.20;;;;;;5080327;27;87668;-52
2023/06/17 06:02:49;;;;;;;4.50;3.17;;;32.10;32.20;;;;;;5080217;27;89563;-51
2023/06/17 06:05:17;;;;;;;5.00;3.27;;;32.10;32.30;;;;;;5079616;27;88159;-51
2023/06/17 06:07:46;;;;;;;5.13;3.20;;;32.10;32.30;;;;;;5080462;27;88090;-52
2023/06/17 06:10:14;;;;;;;4.80;3.50;;;32.20;32.30;;;;;;5079798;27;87695;-52
2023/06/17 06:12:42;;;;;;;5.47;2.80;;;32.10;32.30;;;;;;5080134;27;88591;-52
2023/06/17 06:15:10;;;;;;;3.67;3.00;;;32.10;32.30;;;;;;5080153;27;89186;-51
2023/06/17 06:17:38;;;;;;;4.63;3.30;;;32.20;32.40;;;;;;5075698;27;87433;-52
2023/06/17 06:20:08;;;;;;;3.60;2.53;;;32.10;32.40;;;;;;5079864;27;87624;-52
2023/06/17 06:22:36;;;;;;;5.33;2.87;;;32.10;32.40;;;;;;5080171;27;88791;-52
2023/06/17 06:25:05;;;;;;;5.90;2.77;;;32.20;32.50;;;;;;5079825;27;87958;-51
2023/06/17 06:27:33;;;;;;;3.80;2.70;;;32.10;32.50;;;;;;5079231;27;87406;-52
2023/06/17 06:30:01;;;;;;;3.93;2.63;;;32.20;32.50;;;;;;5080192;27;87728;-52
2023/06/17 06:32:29;;;;;;;3.50;2.30;;;32.20;32.50;;;;;;5078818;27;89696;-52
2023/06/17 06:34:57;;;;;;;4.10;2.80;;;32.20;32.50;;;;;;5079836;27;89191;-52
2023/06/17 06:37:27;;;;;;;2.57;2.23;;;32.20;32.60;;;;;;5079099;27;87536;-52
2023/06/17 06:39:55;;;;;;;2.57;2.07;;;32.20;32.60;;;;;;5079429;27;87707;-52
2023/06/17 06:42:23;;;;;;;4.10;2.40;;;32.20;32.60;;;;;;5078839;27;88682;-52
2023/06/17 06:44:51;;;;;;;2.13;1.80;;;32.20;32.60;;;;;;5079549;27;87922;-52
2023/06/17 06:47:19;;;;;;;3.07;2.30;;;32.20;32.60;;;;;;5078997;27;87463;-52
2023/06/17 06:49:47;;;;;;;2.50;1.90;;;32.20;32.60;;;;;;5079822;27;87593;-52
2023/06/17 06:52:15;;;;;;;2.00;1.80;;;32.20;32.60;;;;;;5078810;27;89416;-52
2023/06/17 06:54:45;;;;;;;3.17;2.10;;;32.20;32.60;;;;;;5078887;27;87914;-52
2023/06/17 06:57:13;;;;;;;2.00;1.80;;;32.10;32.60;;;;;;5079661;27;87750;-52
2023/06/17 06:59:41;;;;;;;2.70;1.73;;;32.20;32.70;;;;;;5079758;27;87778;-52
2023/06/17 07:02:09;;;;;;;3.60;2.50;;;32.20;32.70;;;;;;5079503;27;89738;-52
2023/06/17 07:04:37;;;;;;;2.27;1.77;;;32.20;32.70;;;;;;5077579;27;88063;-52
2023/06/17 07:07:05;;;;;;;3.77;2.17;;;32.20;32.80;;;;;;5079107;27;88788;-51
2023/06/17 07:09:33;;;;;;;2.37;1.93;;;32.20;32.80;;;;;;5086079;27;87482;-51
2023/06/17 07:12:03;;;;;;;3.83;2.20;;;32.10;32.70;;;;;;5085986;27;88591;-52
2023/06/17 07:14:31;;;;;;;3.60;2.20;;;32.10;32.70;;;;;;5085732;27;89312;-52
2023/06/17 07:16:59;;;;;;;2.80;2.23;;;32.20;32.90;;;;;;5085713;27;87427;-51
2023/06/17 07:19:27;;;;;;;3.57;2.40;;;32.10;32.80;;;;;;5086202;27;87172;-52
2023/06/17 07:21:55;;;;;;;2.63;2.43;;;32.10;32.80;;;;;;5085229;27;89339;-52
2023/06/17 07:24:23;;;;;;;3.17;2.50;;;32.10;32.80;;;;;;5085206;27;89313;-52
2023/06/17 07:26:51;;;;;;;2.77;2.37;;;32.10;32.80;;;;;;5085766;27;87208;-52
2023/06/17 07:29:21;;;;;;;3.30;2.80;;;32.10;32.80;;;;;;5086278;27;87247;-52
2023/06/17 07:31:49;;;;;;;5.93;2.93;;;32.10;32.80;;;;;;5085706;27;88719;-52
2023/06/17 07:34:17;;;;;;;3.20;2.37;;;32.10;32.90;;;;;;5085986;27;88036;-52
2023/06/17 07:36:45;;;;;;;4.33;2.67;;;32.10;32.90;;;;;;5086012;27;87300;-52
2023/06/17 07:39:13;;;;;;;2.63;2.37;;;32.10;32.90;;;;;;5086003;27;87668;-52
2023/06/17 07:41:41;;;;;;;2.60;2.33;;;32.10;32.90;;;;;;5085726;27;88693;-52
2023/06/17 07:44:09;;;;;;;4.67;2.97;;;32.10;32.90;;;;;;5084677;27;89022;-52
2023/06/17 07:46:39;;;;;;;4.67;2.50;;;32.10;32.90;;;;;;5085556;27;87768;-52
2023/06/17 07:49:07;;;;;;;2.00;1.80;;;32.00;33.60;;;;;;5084906;27;87277;-52
2023/06/17 07:51:36;;;;;;;4.07;2.73;;;32.10;32.90;;;;;;5084817;27;90169;-52
2023/06/17 07:54:05;;;;;;;2.50;2.20;;;32.10;32.90;;;;;;5085104;27;89280;-52
2023/06/17 07:56:34;;;;;;;2.60;2.20;;;32.00;32.90;;;;;;5085025;27;87759;-51
2023/06/17 07:59:02;;;;;;;2.37;1.90;;;32.00;32.90;;;;;;5085546;27;87623;-52
2023/06/17 08:01:30;;;;;;;2.33;1.57;;;32.00;32.90;;;;;;5085544;27;88823;-52
2023/06/17 08:03:59;;;;;;;2.57;2.20;;;32.00;33.60;;;;;;5085180;27;88016;-52
2023/06/17 08:06:29;;;;;;;2.97;1.97;;;31.90;32.90;;;;;;5085096;27;87658;-52
2023/06/17 08:08:57;;;;;;;2.30;2.10;;;32.00;33.00;;;;;;5085139;27;87650;-52
2023/06/17 08:11:25;;;;;;;2.77;2.20;;;32.00;32.90;;;;;;5085101;27;90013;-52
2023/06/17 08:13:53;;;;;;;2.20;1.73;;;32.00;32.90;;;;;;5084698;27;89222;-52
2023/06/17 08:16:21;;;;;;;2.27;1.80;;;31.90;32.90;;;;;;5084860;27;87328;-52
2023/06/17 08:18:49;;;;;;;2.10;1.90;;;32.00;32.90;;;;;;5084680;27;87608;-52
2023/06/17 08:21:18;;;;;;;2.03;1.60;;;31.90;32.90;;;;;;5084406;27;88709;-52
2023/06/17 08:23:46;;;;;;;1.60;1.50;;;32.00;32.90;;;;;;5084780;27;89136;-52
2023/06/17 08:26:15;;;;;;;2.83;1.83;;;32.00;33.60;;;;;;5084999;27;87485;-52
2023/06/17 08:28:43;;;;;;;3.17;1.87;;;32.00;32.90;;;;;;5085109;27;87187;-52
2023/06/17 08:31:11;;;;;;;2.17;1.53;;;32.00;33.00;;;;;;5084959;27;88831;-52
2023/06/17 08:33:39;;;;;;;2.27;1.70;;;31.90;32.90;;;;;;5084241;27;89174;-52
2023/06/17 08:36:07;;;;;;;3.10;2.20;;;31.90;32.90;;;;;;5084620;27;87424;-52
2023/06/17 08:38:37;;;;;;;2.73;1.90;;;31.90;32.90;;;;;;5084701;27;87542;-52
2023/06/17 08:41:06;;;;;;;1.97;1.70;;;31.90;32.90;;;;;;5084507;27;89697;-52
2023/06/17 08:43:34;;;;;;;2.40;1.70;;;31.90;33.00;;;;;;5084086;27;87742;-52
2023/06/17 08:46:02;;;;;;;1.90;1.70;;;31.90;32.90;;;;;;5084142;27;87482;-52
2023/06/17 08:48:30;;;;;;;1.63;1.53;;;31.90;33.00;;;;;;5084216;27;88635;-52
2023/06/17 08:50:58;;;;;;;1.30;1.20;;;31.90;33.00;;;;;;5083459;27;89773;-52
2023/06/17 08:53:26;;;;;;;1.67;1.50;;;31.90;33.00;;;;;;5063060;27;88290;-52
2023/06/17 08:55:56;;;;;;;1.50;1.37;;;31.90;33.00;;;;;;5063199;27;87299;-52
2023/06/17 08:58:24;;;;;;;1.67;1.47;;;31.90;33.10;;;;;;5063508;27;87472;-52
2023/06/17 09:00:52;;;;;;;2.33;1.60;;;31.90;33.10;;;;;;5063818;27;88536;-52
2023/06/17 09:03:20;;;;;;;1.43;1.33;;;31.90;33.10;;;;;;5063558;27;89009;-52
2023/06/17 09:05:52;;;;;;;1.30;1.20;;;31.90;33.10;;;;;;5063806;27;87508;-52
2023/06/17 09:08:20;;;;;;;1.33;1.23;;;31.90;33.20;;;;;;5063976;27;87722;-52
2023/06/17 09:10:48;;;;;;;1.90;1.70;;;31.90;33.20;;;;;;5063852;27;89847;-52
2023/06/17 09:13:17;;;;;;;1.73;1.60;;;31.90;33.20;;;;;;5063734;27;89323;-52
2023/06/17 09:15:45;;;;;;;1.83;1.47;;;31.90;33.20;;;;;;5063929;27;87323;-52
2023/06/17 09:18:16;;;;;;;1.40;1.30;;;31.90;33.20;;;;;;5063228;27;87408;-52
2023/06/17 09:20:51;;;;;;;3.87;1.77;;;31.90;33.20;;;;;;5063519;27;88509;-52
2023/06/17 09:23:19;;;;;;;2.07;1.63;;;31.90;33.20;;;;;;5062466;27;89009;-52
2023/06/17 09:25:47;;;;;;;2.77;1.70;;;32.00;33.20;;;;;;5062237;27;88080;-52
2023/06/17 09:28:18;;;;;;;1.80;1.60;;;32.00;33.20;;;;;;5063308;27;87639;-52
2023/06/17 09:30:53;;;;;;;2.00;1.40;;;32.00;33.20;;;;;;5061725;27;88605;-52
2023/06/17 09:33:21;;;;;;;1.20;1.10;;;32.00;33.20;;;;;;5062867;27;87927;-52
2023/06/17 09:35:52;;;;;;;1.43;1.20;;;32.00;33.20;;;;;;5063375;27;87425;-52
2023/06/17 09:38:20;;;;;;;2.20;1.27;;;32.00;33.20;;;;;;5063536;27;87535;-52
2023/06/17 09:40:49;;;;;;;1.30;1.13;;;32.00;33.20;;;;;;5062900;27;88567;-52
2023/06/17 09:43:18;;;;;;;3.70;1.40;;;32.00;33.20;;;;;;5062658;27;89080;-52
2023/06/17 09:45:50;;;;;;;1.50;1.40;;;32.10;33.90;;;;;;5061314;27;87470;-52
2023/06/17 09:48:20;;;;;;;2.83;1.80;;;32.10;33.30;;;;;;5062459;27;87635;-51
2023/06/17 09:50:48;;;;;;;1.63;1.43;;;32.10;33.30;;;;;;5062574;27;89849;-52
2023/06/17 09:53:17;;;;;;;2.07;1.10;;;32.10;33.90;;;;;;5063341;27;89031;-52
2023/06/17 09:55:45;;;;;;;2.70;1.60;;;32.10;33.30;;;;;;5063297;27;87482;-52
2023/06/17 09:58:13;;;;;;;1.50;1.37;;;32.10;33.30;;;;;;5080226;27;87526;-54
2023/06/17 10:00:45;;;;;;;2.67;1.80;;;32.10;33.30;;;;;;5082900;27;89753;-54
2023/06/17 10:03:14;;;;;;;3.17;1.27;;;32.10;33.40;;;;;;5083163;27;89286;-52
2023/06/17 10:05:42;;;;;;;1.30;1.20;;;32.10;33.40;;;;;;5083592;27;87339;-53
2023/06/17 10:08:10;;;;;;;1.97;1.47;;;32.10;33.40;;;;;;5083545;27;87628;-52
2023/06/17 10:10:38;;;;;;;1.70;1.43;;;32.10;33.40;;;;;;5082751;27;89751;-53
2023/06/17 10:13:06;;;;;;;1.90;1.70;;;32.20;33.50;;;;;;5082931;27;88158;-52
2023/06/17 10:15:34;;;;;;;2.43;1.57;;;32.20;33.50;;;;;;5082897;27;87671;-52
2023/06/17 10:18:04;;;;;;;1.77;1.50;;;32.20;33.50;;;;;;5083226;27;87695;-52
2023/06/17 10:20:32;;;;;;;2.17;1.30;;;32.20;33.50;;;;;;5081977;27;89634;-52
2023/06/17 10:23:01;;;;;;;2.67;1.50;;;32.20;33.50;;;;;;5082838;27;87297;-52
2023/06/17 10:25:29;;;;;;;2.63;1.30;;;32.20;33.40;;;;;;5082075;27;87439;-53
2023/06/17 10:27:57;;;;;;;3.80;1.53;;;32.20;33.20;;;;;;5083326;27;87632;-52
2023/06/17 10:30:25;;;;;;;1.40;1.30;;;32.20;33.10;;;;;;5082745;27;89707;-51
2023/06/17 10:32:56;;;;;;;1.53;1.13;;;32.10;32.80;;;;;;5082500;27;89263;-51
2023/06/17 10:35:36;;;;;;;5.00;1.40;;;32.00;32.60;;;;;;5083110;27;87560;-51
2023/06/17 10:38:04;;;;;;;5.13;1.40;;;31.90;32.40;;;;;;5084008;27;87588;-52
2023/06/17 10:40:35;;;;;;;1.90;1.60;;;31.90;32.40;;;;;;5084544;27;89678;-51
2023/06/17 10:43:17;;;;;;;1.43;1.20;;;31.90;32.30;;;;;;5084109;27;89194;-54
2023/06/17 10:45:49;;;;;;;1.47;1.27;;;31.80;32.20;;;;;;5082274;27;88035;-52
2023/06/17 10:48:20;;;;;;;2.10;1.43;;;31.90;32.10;;;;;;5082398;27;87607;-52
2023/06/17 10:50:53;;;;;;;1.50;1.37;;;31.90;32.00;;;;;;5081991;27;89806;-53
2023/06/17 10:53:29;;;;;;;2.30;1.70;;;31.90;32.00;;;;;;5081856;27;87433;-51
2023/06/17 10:55:58;;;;;;;4.17;1.40;;;31.90;32.10;;;;;;5083051;27;87426;-52
2023/06/17 10:58:32;;;;;;;2.67;1.87;;;32.10;32.10;;;;;;5082197;27;87380;-53
2023/06/17 11:01:04;;;;;;;2.10;1.70;;;32.20;32.40;;;;;;5082260;27;89261;-53
2023/06/17 11:03:32;;;;;;;3.10;1.90;;;32.30;32.40;;;;;;5082257;27;89143;-52
2023/06/17 11:06:03;;;;;;;2.03;1.60;;;32.40;32.40;;;;;;5082676;27;87332;-51
2023/06/17 11:08:31;;;;;;;2.93;1.97;;;32.40;32.40;;;;;;5082884;27;87613;-51
2023/06/17 11:11:10;;;;;;;3.37;1.80;;;32.50;32.50;;;;;;5082719;27;89631;-50
2023/06/17 11:13:38;;;;;;;3.40;2.13;;;32.50;32.70;;;;;;5081116;27;88156;-50
2023/06/17 11:16:07;;;;;;;7.37;2.53;;;32.50;32.80;;;;;;5079307;27;87501;-51
2023/06/17 11:18:38;;;;;;;5.10;2.67;;;32.60;33.20;;;;;;5081301;27;87637;-51
2023/06/17 11:21:08;;;;;;;2.60;2.17;;;32.60;33.50;;;;;;5069932;27;91041;-50
2023/06/17 11:23:38;;;;;;;2.13;1.60;;;32.70;33.40;;;;;;5080343;27;89213;-50
2023/06/17 11:26:07;;;;;;;2.43;1.57;;;32.70;33.30;;;;;;5076566;27;87437;-50
2023/06/17 11:28:36;;;;;;;1.83;1.63;;;32.60;33.30;;;;;;5070117;27;87733;-50
2023/06/17 11:31:05;;;;;;;4.13;1.67;;;32.60;33.30;;;;;;5061680;27;89831;-50
2023/06/17 11:33:33;;;;;;;4.97;1.40;;;32.60;33.20;;;;;;5073630;27;87778;-52
2023/06/17 11:36:08;;;;;;;1.87;1.60;;;32.60;33.00;;;;;;5068560;27;87926;-51
2023/06/17 11:38:37;;;;;;;7.07;1.90;;;32.60;33.00;;;;;;5061414;27;87528;-52
2023/06/17 11:41:06;;;;;;;3.60;1.60;;;32.60;33.00;;;;;;5061119;27;89986;-53
2023/06/17 11:43:34;;;;;;;4.90;1.90;;;32.60;32.90;;;;;;5066386;27;89154;-52
2023/06/17 11:46:02;;;;;;;7.67;2.20;;;32.70;32.90;;;;;;5079161;27;87458;-52
2023/06/17 11:48:33;;;;;;;5.23;2.17;;;32.70;32.90;;;;;;5078909;27;88310;-51
2023/06/17 11:51:01;;;;;;;4.83;2.20;;;32.80;33.00;;;;;;5078121;27;88545;-52
2023/06/17 11:53:32;;;;;;;9.03;2.00;;;32.70;32.80;;;;;;5078908;27;89262;-52
2023/06/17 11:56:08;;;;;;;8.07;2.00;;;32.80;32.90;;;;;;5082623;27;87456;-53
2023/06/17 11:58:38;;;;;;;6.70;2.30;;;32.80;32.90;;;;;;5082014;27;87383;-52
2023/06/17 12:01:06;;;;;;;4.33;2.10;;;32.80;32.90;;;;;;5082470;27;88457;-52
2023/06/17 12:03:34;;;;;;;6.30;2.33;;;32.80;32.90;;;;;;5081698;27;89167;-51
2023/06/17 12:06:03;;;;;;;5.57;2.47;;;32.80;32.90;;;;;;5081843;27;88187;-52
2023/06/17 12:08:32;;;;;;;7.17;2.40;;;32.90;33.20;;;;;;5081870;27;88038;-52
2023/06/17 12:11:01;;;;;;;5.07;2.00;;;32.90;33.00;;;;;;5082290;27;89907;-52
2023/06/17 12:13:39;;;;;;;5.83;2.43;;;32.90;32.90;;;;;;5081828;27;89053;-52
2023/06/17 12:16:10;;;;;;;3.87;1.93;;;32.90;32.90;;;;;;5082477;27;87404;-52
2023/06/17 12:18:41;;;;;;;3.47;1.87;;;32.90;32.90;;;;;;5081527;27;87421;-53
2023/06/17 12:21:12;;;;;;;3.83;2.30;;;33.00;33.00;;;;;;5081593;27;89799;-52
2023/06/17 12:23:40;;;;;;;3.33;2.00;;;33.00;33.00;;;;;;5081591;27;89166;-52
2023/06/17 12:26:08;;;;;;;6.80;2.37;;;33.00;33.00;;;;;;5081982;27;88039;-52
2023/06/17 12:28:40;;;;;;;3.27;2.10;;;33.00;32.90;;;;;;5081293;27;87606;-52
2023/06/17 12:31:08;;;;;;;4.90;2.00;;;33.00;32.90;;;;;;5080960;27;88691;-52
2023/06/17 12:33:36;;;;;;;6.23;2.40;;;33.10;33.00;;;;;;5081649;27;89214;-52
2023/06/17 12:36:05;;;;;;;5.80;2.20;;;33.10;32.90;;;;;;5081672;27;87478;-52
2023/06/17 12:38:33;;;;;;;4.33;2.20;;;33.10;32.90;;;;;;5081860;27;88256;-53
2023/06/17 12:41:02;;;;;;;10.33;2.40;;;33.10;32.90;;;;;;5081573;27;89734;-53
2023/06/17 12:43:30;;;;;;;5.30;2.43;;;33.10;32.90;;;;;;5081383;27;88156;-53
2023/06/17 12:46:00;;;;;;;5.80;2.30;;;33.10;32.80;;;;;;5081981;27;88048;-53
2023/06/17 12:48:28;;;;;;;2.87;1.70;;;33.20;32.90;;;;;;5082646;27;88246;-53
2023/06/17 12:50:57;;;;;;;3.87;1.90;;;33.20;32.80;;;;;;5081565;27;88547;-52
2023/06/17 12:53:26;;;;;;;5.07;2.10;;;33.20;32.80;;;;;;5083618;27;89194;-53
2023/06/17 12:55:55;;;;;;;4.50;2.00;;;33.20;32.80;;;;;;5083096;27;87521;-53